Terminal Aerodrome Forecast
Issued by NWS

Home | Current Version | Previous Version | Graphics & Text | Print | Product List | Glossary On
Versions: 1 2 3 4 5 6 7 8 9 10 11 12 13 14 15 16 17 18 19 20 21 22 23 24 25 26 27 28 29 30 31 32 33 34 35 36 37 38 39 40 41 42 43 44 45 46 47 48 49 50
893
FTUS43 KGRB 221929 AAA
TAFATW
TAF AMD
KATW 221929Z 2219/2318 23011G19KT P6SM BKN040
     FM222100 24010G17KT P6SM VCSH BKN045
     FM230300 VRB03KT P6SM SCT045 BKN090
     FM231200 04003KT P6SM OVC050
     FM231500 06005KT P6SM -SHRA SCT028 OVC035=

USA.gov is the U.S. government's official web portal to all federal, state and local government web resources and services.